Drachten Airfield

EHDR · Friesland, Holandia

Historia METAR EHDR · Drachten Airfield

Poniżej widzisz METAR-y z ostatnich kilku dni. Wybierz rok, aby przeglądać starsze METAR-y, począwszy od roku 2007.

3 grudnia 2022

Czas Kod Pogoda Temp. Widoczność Sufit Wiatr METAR/SPECI
23:00
M
1 °C 10 km+ 1.400 ft 080° 080° 11 kt METAR EHLW 032200Z AUTO 08011KT 020V130 9999 OVC014 01/M02 Q1020 GRN
22:55
M
1 °C 10 km+ 1.500 ft 080° 080° 11 kt METAR EHLW 032155Z AUTO 08011KT 360V140 9999 OVC015 01/M02 Q1020 WHT
22:25
M
1 °C 10 km+ 1.500 ft 080° 080° 11 kt METAR EHLW 032125Z AUTO 08011KT 360V140 9999 BKN015 BKN076 01/M02 Q1020 WHT
21:59
V
1 °C 10 km+ 6.300 ft 080° 080° 11 kt METAR EHLW 032059Z AUTO 08011KT 030V130 9999 FEW015 SCT019 BKN063 01/M02 Q1021 WHT
21:55
V
1 °C 10 km+ 6.200 ft 080° 080° 11 kt METAR EHLW 032055Z AUTO 08011KT 020V130 9999 FEW019 OVC062 01/M02 Q1021 BLU
21:25
V
1 °C 10 km+ - 080° 080° 11 kt METAR EHLW 032025Z AUTO 08011KT 020V130 9999 NCD 01/M02 Q1021 BLU
21:15
V
1 °C 10 km+ - 090° 090° 12 kt METAR EHLW 032015Z AUTO 09012KT 030V140 9999 FEW016 SCT100 01/M02 Q1021 BLU
20:55
M
1 °C 10 km+ 1.900 ft 080° 080° 10 kt METAR EHLW 031955Z AUTO 08010KT 030V150 9999 BKN019 OVC100 01/M01 Q1021 WHT
20:25
V
1 °C 10 km+ 11.000 ft Var Var 9 kt METAR EHLW 031925Z AUTO VRB09KT 9999 OVC110 01/M01 Q1021 BLU
19:55
V
1 °C 10 km+ 9.900 ft 080° 080° 8 kt METAR EHLW 031855Z AUTO 08008KT 030V140 9999 OVC099 01/M01 Q1021 BLU
19:25
V
2 °C 10 km+ 9.100 ft 080° 080° 9 kt METAR EHLW 031825Z AUTO 08009KT 030V150 9999 SCT085 BKN091 BKN099 02/M01 Q1021 BLU
18:55
V
2 °C 10 km+ 9.000 ft 080° 080° 10 kt METAR EHLW 031755Z AUTO 08010KT 030V140 9999 BKN090 OVC096 02/M01 Q1021 BLU
18:25
V
2 °C 10 km+ 9.200 ft 070° 070° 10 kt METAR EHLW 031725Z AUTO 07010KT 010V180 9999 BKN092 OVC098 02/M01 Q1021 BLU
17:55
V
2 °C 10 km+ 9.200 ft 070° 070° 9 kt METAR EHLW 031655Z AUTO 07009KT 350V160 9999 SCT087 BKN092 OVC098 02/M01 Q1021 BLU
17:25
V
2 °C 10 km+ 8.500 ft 080° 080° 10 kt METAR EHLW 031625Z AUTO 08010KT 340V130 9999 BKN085 OVC093 02/M01 Q1021 BLU
16:55
V
2 °C 10 km+ 9.800 ft 080° 080° 11 kt METAR EHLW 031555Z AUTO 08011KT 010V130 9999 FEW080 BKN098 OVC100 02/M01 Q1021 BLU
16:25
V
2 °C 10 km+ 9.400 ft 080° 080° 12 kt METAR EHLW 031525Z AUTO 08012KT 010V150 9999 FEW087 BKN094 OVC100 02/M01 Q1021 BLU
15:55
V
2 °C 10 km+ 9.400 ft 070° 070° 12 kt METAR EHLW 031455Z AUTO 07012KT 330V130 9999 BKN094 OVC099 02/M01 Q1021 BLU
15:25
V
2 °C 10 km+ 10.000 ft 070° 070° 13 kt METAR EHLW 031425Z AUTO 07013KT 340V150 9999 FEW085 SCT090 OVC100 02/M01 Q1022 BLU
14:55
V
2 °C 10 km+ 9.800 ft Var Var 12 kt METAR EHLW 031355Z AUTO VRB12KT 9999 FEW087 OVC098 02/M01 Q1022 BLU
14:25
V
3 °C 10 km+ 7.700 ft 070° 070° 11 kt METAR EHLW 031325Z AUTO 07011KT 360V120 9999 FEW065 BKN077 OVC082 03/M01 Q1022 BLU
13:55
V
3 °C 10 km+ 7.500 ft 070° 070° 12 kt METAR EHLW 031255Z AUTO 07012KT 330V140 9999 FEW066 BKN075 OVC081 03/M00 Q1022 BLU
13:25
V
3 °C 10 km+ 8.300 ft 070° 070° 14 kt METAR EHLW 031225Z AUTO 07014KT 010V130 9999 FEW067 SCT077 BKN083 03/M01 Q1022 BLU
12:55
V
3 °C 10 km+ 7.200 ft 070° 070° 13 kt METAR EHLW 031155Z AUTO 07013KT 360V130 9999 FEW067 OVC072 03/M01 Q1023 BLU
12:25
V
3 °C 10 km+ 7.800 ft 070° 070° 13 kt METAR EHLW 031125Z AUTO 07013KT 010V160 9999 FEW067 BKN078 BKN087 03/M01 Q1023 BLU
11:55
V
3 °C 10 km+ 5.400 ft 080° 080° 13 kt METAR EHLW 031055Z AUTO 08013KT 010V130 9999 BKN054 BKN060 OVC075 03/M01 Q1023 BLU
11:25
V
3 °C 10 km+ 9.300 ft 070° 070° 14 kt METAR EHLW 031025Z AUTO 07014KT 330V140 9999 OVC093 03/M01 Q1024 BLU
10:55
V
3 °C 10 km+ 9.000 ft 070° 070° 12 kt METAR EHLW 030955Z AUTO 07012KT 010V120 9999 SCT083 OVC090 03/M00 Q1024 BLU
10:25
V
3 °C 10 km+ 9.400 ft 070° 070° 15 kt METAR EHLW 030925Z AUTO 07015KT 360V140 9999 SCT088 BKN094 OVC099 03/M00 Q1024 BLU
09:55
V
3 °C 10 km+ 9.500 ft 070° 070° 15 kt METAR EHLW 030855Z AUTO 07015KT 360V130 9999 FEW087 BKN095 OVC110 03/M00 Q1024 BLU
09:25
V
3 °C 10 km+ 9.300 ft 070° 070° 12 kt METAR EHLW 030825Z AUTO 07012KT 350V120 9999 OVC093 03/00 Q1024 BLU
08:55
V
4 °C 10 km+ 8.700 ft 070° 070° 14 kt METAR EHLW 030755Z AUTO 07014KT 360V120 9999 OVC087 04/00 Q1024 BLU
08:25
V
4 °C 10 km+ 8.600 ft 070° 070° 13 kt METAR EHLW 030725Z AUTO 07013KT 350V130 9999 FEW017 BKN086 OVC092 04/01 Q1024 BLU
07:55
V
4 °C 10 km+ 7.600 ft Var Var 12 kt METAR EHLW 030655Z AUTO VRB12KT 9999 BKN076 OVC081 04/01 Q1024 BLU
07:25
V
4 °C 10 km+ 7.400 ft 070° 070° 14 kt METAR EHLW 030625Z AUTO 07014KT 360V140 9999 OVC074 04/01 Q1024 BLU
06:55
V
4 °C 10 km+ 9.400 ft 070° 070° 14 kt METAR EHLW 030555Z AUTO 07014KT 350V150 9999 FEW017 OVC094 04/01 Q1024 BLU
06:25
V
4 °C 10 km+ 6.900 ft 070° 070° 13 kt METAR EHLW 030525Z AUTO 07013KT 360V160 9999 BKN069 OVC093 04/01 Q1024 BLU
05:55
V
4 °C 10 km+ 6.900 ft 070° 070° 14 kt METAR EHLW 030455Z AUTO 07014KT 350V160 9999 BKN069 OVC091 04/01 Q1024 BLU
05:41
V
4 °C 10 km+ 7.100 ft 070° 070° 14 kt METAR EHLW 030441Z AUTO 07014KT 350V140 9999 FEW017 SCT066 BKN071 04/01 Q1024 BLU
05:35
V
4 °C 10 km+ 6.500 ft 070° 070° 14 kt METAR EHLW 030435Z AUTO 07014KT 360V120 9999 FEW015 SCT018 OVC065 04/01 Q1024 WHT
05:25
V
4 °C 10 km+ 6.500 ft 070° 070° 14 kt METAR EHLW 030425Z AUTO 07014KT 330V140 9999 FEW018 OVC065 04/02 Q1024 BLU
04:55
V
4 °C 10 km+ 6.400 ft Var Var 13 kt METAR EHLW 030355Z AUTO VRB13KT 9999 OVC064 04/01 Q1025 BLU
04:25
V
4 °C 10 km+ - 070° 070° 12 kt METAR EHLW 030325Z AUTO 07012KT 350V130 9999 FEW094 04/02 Q1025 BLU
03:55
V
4 °C 10 km+ 9.300 ft 070° 070° 12 kt METAR EHLW 030255Z AUTO 07012KT 350V130 9999 BKN093 04/02 Q1025 BLU
03:25
V
4 °C 10 km+ - 070° 070° 13 kt METAR EHLW 030225Z AUTO 07013KT 350V150 9999 NCD 04/02 Q1025 BLU
02:55
V
4 °C 10 km+ 8.300 ft 060° 060° 13 kt METAR EHLW 030155Z AUTO 06013KT 360V130 9999 OVC083 04/02 Q1025 BLU
02:25
V
4 °C 10 km+ 8.400 ft 050° 050° 9 kt METAR EHLW 030125Z AUTO 05009KT 360V110 9999 OVC084 04/02 Q1025 BLU
01:55
V
2 °C 8 km 8.000 ft 060° 060° 8 kt METAR EHLW 030055Z AUTO 06008KT 320V110 8000 BR BKN080 02/01 Q1025 BLU
01:42
V
2 °C 8 km 7.900 ft 050° 050° 7 kt METAR EHLW 030042Z AUTO 05007KT 360V110 8000 BR BKN079 BKN084 02/01 Q1025 BLU
01:38
M
2 °C 7 km 7.800 ft 050° 050° 7 kt METAR EHLW 030038Z AUTO 05007KT 360V080 7000 BR OVC078 02/00 Q1025 WHT
01:25
V
1 °C 8 km 7.800 ft 040° 040° 5 kt METAR EHLW 030025Z AUTO 04005KT 010V090 8000 BR BKN078 01/M00 Q1025 BLU
00:55
V
2 °C 10 km+ 3.400 ft 030° 030° 6 kt METAR EHLW 022355Z AUTO 03006KT 9999 FEW026 BKN034 OVC038 02/00 Q1026 BLU
00:25
V
3 °C 10 km+ 3.300 ft 050° 050° 4 kt METAR EHLW 022325Z AUTO 05004KT 010V080 9999 SCT029 OVC033 03/00 Q1026 BLU

2 grudnia 2022

Czas Kod Pogoda Temp. Widoczność Sufit Wiatr METAR/SPECI
23:56
V
3 °C 10 km+ 3.100 ft 070° 070° 5 kt METAR EHLW 022256Z AUTO 07005KT 330V120 9999 FEW022 SCT027 OVC031 03/M00 Q1026 BLU
23:55
M
3 °C 10 km+ 2.500 ft 070° 070° 5 kt METAR EHLW 022255Z AUTO 07005KT 360V140 9999 SCT022 BKN025 OVC030 03/M00 Q1026 WHT
23:27
V
3 °C 10 km+ 3.000 ft 060° 060° 7 kt METAR EHLW 022227Z AUTO 06007KT 310V120 9999 FEW018 SCT026 OVC030 03/M00 Q1027 BLU
23:25
M
3 °C 10 km+ 2.500 ft 060° 060° 8 kt METAR EHLW 022225Z AUTO 06008KT 360V120 9999 FEW018 SCT022 BKN025 03/M01 Q1027 WHT
23:11
M
3 °C 10 km+ 2.800 ft 060° 060° 8 kt METAR EHLW 022211Z AUTO 06008KT 360V130 9999 SCT023 BKN028 OVC032 03/M01 Q1027 WHT
23:10
V
3 °C 10 km+ 3.000 ft 060° 060° 8 kt METAR EHLW 022210Z AUTO 06008KT 360V130 9999 FEW022 SCT027 OVC030 03/M01 Q1027 BLU
22:59
M
3 °C 10 km+ 2.800 ft 070° 070° 9 kt SPECI EHLW 022159Z AUTO 07009KT 350V140 9999 FEW019 SCT024 BKN028 03/M01 Q1027 WHT
22:55
M
2 °C 10 km+ 2.800 ft 060° 060° 8 kt METAR EHLW 022155Z AUTO 06008KT 350V120 9999 FEW023 BKN028 OVC031 02/M01 Q1027 BLU
22:46
M
2 °C 10 km+ 2.500 ft 060° 060° 9 kt SPECI EHLW 022146Z AUTO 06009KT 340V120 9999 FEW021 BKN025 OVC028 02/M01 Q1027 BLU
22:30
M
2 °C 10 km+ 2.800 ft 060° 060° 8 kt METAR EHLW 022130Z AUTO 06008KT 010V100 9999 SCT021 OVC028 02/M01 Q1027 WHT
22:25
M
2 °C 10 km+ 2.600 ft 060° 060° 8 kt METAR EHLW 022125Z AUTO 06008KT 350V120 9999 BKN026 OVC030 02/M01 Q1027 BLU
21:55
M
2 °C 10 km+ 2.600 ft 070° 070° 10 kt METAR EHLW 022055Z AUTO 07010KT 340V140 9999 OVC026 02/M01 Q1027 BLU
21:29
M
2 °C 10 km+ 2.500 ft 080° 080° 12 kt METAR EHLW 022029Z AUTO 08012KT 020V140 9999 OVC025 02/M02 Q1027 BLU
21:25
M
2 °C 10 km+ 2.500 ft 080° 080° 13 kt METAR EHLW 022025Z AUTO 08013KT 020V140 9999 SCT021 OVC025 02/M02 Q1027 WHT
20:55
M
2 °C 10 km+ 1.900 ft 070° 070° 13 kt METAR EHLW 021955Z AUTO 07013KT 360V140 9999 OVC019 02/M02 Q1027 WHT
20:25
M
2 °C 10 km+ 2.000 ft 080° 080° 14 kt METAR EHLW 021925Z AUTO 08014KT 360V140 9999 OVC020 02/M02 Q1027 WHT
19:55
M
3 °C 10 km+ 2.300 ft 070° 070° 12 kt METAR EHLW 021855Z AUTO 07012KT 360V140 9999 OVC023 03/M02 Q1027 WHT
19:25
M
3 °C 10 km+ 2.100 ft 060° 060° 11 kt METAR EHLW 021825Z AUTO 06011KT 360V130 9999 FEW018 OVC021 03/M01 Q1027 WHT
18:55
M
3 °C 10 km+ 2.100 ft 060° 060° 11 kt METAR EHLW 021755Z AUTO 06011KT 340V150 9999 OVC021 03/M01 Q1027 WHT
18:25
M
2 °C 10 km+ 2.200 ft 060° 060° 9 kt METAR EHLW 021725Z AUTO 06009KT 350V130 9999 OVC022 02/M01 Q1027 WHT
18:10
M
2 °C 9 km 2.400 ft 060° 060° 10 kt METAR EHLW 021710Z AUTO 06010KT 010V120 9000 BR BKN024 OVC027 02/M01 Q1027 WHT
18:05
M
2 °C 9 km 2.600 ft 060° 060° 9 kt METAR EHLW 021705Z AUTO 06009KT 330V130 9000 BR OVC026 02/M01 Q1027 BLU
17:55
M
2 °C 8 km 2.800 ft 060° 060° 10 kt METAR EHLW 021655Z AUTO 06010KT 360V100 8000 BR SCT024 OVC028 02/M01 Q1027 WHT
17:44
M
2 °C 8 km 2.500 ft 060° 060° 10 kt METAR EHLW 021644Z AUTO 06010KT 360V120 8000 BR BKN025 OVC028 02/M00 Q1027 BLU
17:36
M
2 °C 7 km 2.400 ft 060° 060° 10 kt METAR EHLW 021636Z AUTO 06010KT 340V140 7000 BR OVC024 02/M00 Q1027 WHT
17:25
M
2 °C 8 km 2.200 ft 050° 050° 10 kt METAR EHLW 021625Z AUTO 05010KT 360V110 8000 BR OVC022 02/M00 Q1027 WHT
16:55
M
2 °C 9 km 1.600 ft 070° 070° 11 kt METAR EHLW 021555Z AUTO 07011KT 350V120 9000 BR FEW013 BKN016 OVC022 02/M01 Q1027 WHT
16:25
M
2 °C 10 km+ 1.300 ft 070° 070° 14 kt METAR EHLW 021525Z AUTO 07014KT 330V140 9999 OVC013 02/M01 Q1027 GRN
16:15
M
2 °C 10 km+ 1.400 ft 070° 070° 13 kt METAR EHLW 021515Z AUTO 07013KT 340V130 9999 OVC014 02/M01 Q1027 GRN
15:55
M
2 °C 10 km+ 1.400 ft 080° 080° 15 kt METAR EHLW 021455Z AUTO 08015KT 010V170 9999 BKN014 OVC017 02/M01 Q1026 GRN
15:39
M
2 °C 10 km+ 1.400 ft Var Var 14 kt METAR EHLW 021439Z AUTO VRB14KT 9999 OVC014 02/M01 Q1026 GRN
15:25
M
2 °C 10 km+ 1.500 ft 080° 080° 14 kt METAR EHLW 021425Z AUTO 08014KT 010V130 9999 OVC015 02/M01 Q1026 WHT TEMPO BKN010
14:55
M
3 °C 10 km+ 1.500 ft 070° 070° 14 kt METAR EHLW 021355Z AUTO 07014KT 340V150 9999 OVC015 03/M00 Q1026 WHT TEMPO BKN010
14:25
M
3 °C 10 km+ 1.800 ft 080° 080° 13 kt METAR EHLW 021325Z AUTO 08013KT 010V150 9999 SCT015 BKN018 OVC023 03/00 Q1026 WHT TEMPO BKN010
14:15
M
3 °C 10 km+ 1.500 ft 070° 070° 12 kt METAR EHLW 021315Z AUTO 07012KT 020V140 9999 FEW013 OVC015 03/00 Q1026 WHT TEMPO BKN010
14:04
V
3 °C 9 km 3.400 ft 070° 070° 11 kt METAR EHLW 021304Z AUTO 07011KT 360V140 9000 BR SCT017 BKN034 03/00 Q1026 WHT TEMPO BKN010
13:55
V
3 °C 9 km 3.300 ft 070° 070° 11 kt METAR EHLW 021255Z AUTO 07011KT 350V120 9000 BR OVC033 03/00 Q1026 BLU TEMPO BKN010
13:43
V
3 °C 9 km 3.300 ft 070° 070° 11 kt METAR EHLW 021243Z AUTO 07011KT 350V150 9000 BR FEW011 OVC033 03/00 Q1026 BLU TEMPO BKN010
13:39
M
3 °C 9 km 1.400 ft 070° 070° 13 kt METAR EHLW 021239Z AUTO 07013KT 340V140 9000 BR SCT011 BKN014 BKN017 03/00 Q1026 GRN TEMPO BKN010
13:31
V
3 °C 10 km+ 3.500 ft 080° 080° 13 kt METAR EHLW 021231Z AUTO 08013KT 010V130 9999 FEW012 SCT015 OVC035 03/00 Q1026 WHT TEMPO BKN010
13:25
V
3 °C 10 km+ 3.500 ft 080° 080° 13 kt METAR EHLW 021225Z AUTO 08013KT 010V140 9999 OVC035 03/00 Q1026 BLU TEMPO BKN010
12:59
V
3 °C 10 km+ 3.800 ft 070° 070° 13 kt METAR EHLW 021159Z AUTO 07013KT 360V160 9999 FEW011 BKN038 03/00 Q1026 BLU TEMPO BKN010
12:55
M
3 °C 10 km+ 1.300 ft Var Var 14 kt METAR EHLW 021155Z AUTO VRB14KT 9999 SCT011 BKN013 BKN037 03/00 Q1026 GRN TEMPO BKN010
12:43
V
3 °C 10 km+ - 080° 080° 13 kt METAR EHLW 021143Z AUTO 08013KT 340V130 9999 SCT012 03/M00 Q1026 GRN TEMPO SCT012 BKN015
12:25
V
3 °C 10 km+ - 070° 070° 12 kt METAR EHLW 021125Z AUTO 07012KT 350V140 9999 FEW011 03/00 Q1026 BLU TEMPO SCT012 BKN015
11:58
V
3 °C 10 km+ - 070° 070° 13 kt METAR EHLW 021058Z AUTO 07013KT 360V130 9999 FEW010 SCT082 03/00 Q1026 BLU TEMPO SCT012 BKN015
11:55
V
3 °C 10 km+ - 070° 070° 14 kt METAR EHLW 021055Z AUTO 07014KT 010V130 9999 SCT011 SCT082 03/00 Q1026 GRN TEMPO SCT012 BKN015
11:25
V
3 °C 10 km+ - 080° 080° 13 kt METAR EHLW 021025Z AUTO 08013KT 020V120 9999 NCD 03/M00 Q1027 BLU TEMPO SCT012 BKN015
11:16
V
2 °C 10 km+ - 080° 080° 13 kt METAR EHLW 021016Z AUTO 08013KT 020V140 9999 FEW098 02/M00 Q1027 BLU TEMPO SCT012 BKN015
11:03
V
2 °C 9 km 7.300 ft 080° 080° 14 kt METAR EHLW 021003Z AUTO 08014KT 010V150 9000 BR FEW010 SCT040 BKN073 02/M00 Q1027 BLU TEMPO SCT012 BKN015
10:55
M
3 °C 8 km 1.100 ft 080° 080° 15 kt METAR EHLW 020955Z AUTO 08015KT 360V170 8000 BR BKN011 OVC013 03/00 Q1027 GRN TEMPO SCT012 BKN015
10:43
M
3 °C 7 km 1.000 ft 080° 080° 13 kt METAR EHLW 020943Z AUTO 08013KT 010V150 7000 BR BKN010 OVC012 03/01 Q1027 GRN TEMPO SCT012 BKN015
10:25
M
3 °C 8 km 1.400 ft 060° 060° 15 kt METAR EHLW 020925Z AUTO 06015KT 330V130 8000 BR SCT011 BKN014 OVC017 03/01 Q1026 GRN TEMPO SCT012 BKN015
10:19
M
3 °C 7 km 1.500 ft 060° 060° 14 kt METAR EHLW 020919Z AUTO 06014KT 340V140 7000 BR SCT012 BKN015 OVC063 03/01 Q1026 GRN TEMPO SCT012 BKN015
10:11
V
3 °C 9 km 6.300 ft 070° 070° 16 kt METAR EHLW 020911Z AUTO 07016KT 330V130 9000 BR FEW013 BKN063 BKN068 03/01 Q1026 BLU TEMPO SCT015
10:07
V
3 °C 9 km 6.500 ft 070° 070° 16 kt METAR EHLW 020907Z AUTO 07016KT 330V140 9000 BR FEW013 SCT016 BKN065 03/01 Q1026 WHT TEMPO SCT015
09:55
V
3 °C 8 km 7.000 ft 060° 060° 12 kt METAR EHLW 020855Z AUTO 06012KT 340V110 8000 BR SCT015 BKN070 BKN082 03/01 Q1026 WHT TEMPO 4000 BR
09:36
M
2 °C 6 km - 050° 050° 8 kt METAR EHLW 020836Z AUTO 05008KT 350V130 6000 BR NCD 02/01 Q1026 WHT TEMPO 4000 BR
09:25
M
2 °C 5 km - 040° 040° 7 kt METAR EHLW 020825Z AUTO 04007KT 010V070 5000 BR SCT110 02/00 Q1026 WHT TEMPO 4000 BR
09:18
M
1 °C 5 km 11.000 ft 030° 030° 6 kt METAR EHLW 020818Z AUTO 03006KT 010V070 5000 BR BKN110 01/M00 Q1026 WHT TEMPO 4000 BR
08:55
I
1 °C 4,1 km 10.000 ft 040° 040° 5 kt METAR EHLW 020755Z AUTO 04005KT 360V070 4100 BR OVC100 01/00 Q1026 GRN TEMPO 4000 BR
08:25
I
1 °C 4,2 km 10.000 ft 040° 040° 4 kt METAR EHLW 020725Z AUTO 04004KT 4200 BR FEW086 OVC100 01/M00 Q1026 GRN TEMPO 4000 BR
08:15
I
1 °C 4,3 km 10.000 ft 050° 050° 4 kt METAR EHLW 020715Z AUTO 05004KT 010V080 4300 BR FEW084 SCT090 OVC100 01/M00 Q1026 GRN TEMPO 4000 BR
07:55
I
1 °C 3,9 km 6.300 ft 040° 040° 4 kt METAR EHLW 020655Z AUTO 04004KT 3900 BR OVC063 01/M00 Q1026 GRN NOSIG
07:44
I
1 °C 4,2 km 6.000 ft 060° 060° 5 kt METAR EHLW 020644Z AUTO 06005KT 360V110 4200 BR OVC060 01/M00 Q1026 GRN NOSIG
07:42
I
2 °C 4,4 km 6.000 ft 070° 070° 5 kt METAR EHLW 020642Z AUTO 07005KT 360V120 4400 BR OVC060 02/00 Q1026 GRN NOSIG
07:30
M
2 °C 5 km 5.900 ft 080° 080° 5 kt METAR EHLW 020630Z AUTO 08005KT 020V130 5000 BR BKN059 OVC067 02/00 Q1026 WHT NOSIG
07:25
M
1 °C 5 km 7.200 ft 070° 070° 5 kt METAR EHLW 020625Z AUTO 07005KT 350V140 5000 BR SCT062 SCT067 BKN072 01/00 Q1026 WHT
07:10
I
2 °C 4,8 km 8.400 ft 060° 060° 7 kt METAR EHLW 020610Z AUTO 06007KT 360V110 4800 BR BKN084 02/00 Q1026 GRN
06:55
M
2 °C 6 km 7.400 ft 060° 060° 7 kt METAR EHLW 020555Z AUTO 06007KT 360V140 6000 BR FEW068 BKN074 OVC084 02/00 Q1026 WHT
06:38
M
2 °C 6 km 7.500 ft 070° 070° 7 kt METAR EHLW 020538Z AUTO 07007KT 360V150 6000 BR SCT013 OVC075 02/01 Q1026 GRN
06:25
M
3 °C 7 km 7.500 ft 070° 070° 7 kt METAR EHLW 020525Z AUTO 07007KT 330V120 7000 BR FEW062 OVC075 03/00 Q1026 WHT
05:55
M
3 °C 7 km 7.300 ft 080° 080° 8 kt METAR EHLW 020455Z AUTO 08008KT 030V120 7000 BR OVC073 03/00 Q1026 WHT
05:25
M
2 °C 6 km 7.100 ft 070° 070° 9 kt METAR EHLW 020425Z AUTO 07009KT 360V130 6000 BR SCT016 OVC071 02/01 Q1027 WHT
05:10
M
2 °C 7 km 1.500 ft 060° 060° 6 kt METAR EHLW 020410Z AUTO 06006KT 010V120 7000 BR OVC015 02/00 Q1027 WHT
05:05
M
2 °C 7 km 1.400 ft 070° 070° 6 kt METAR EHLW 020405Z AUTO 07006KT 010V120 7000 BR BKN014 OVC068 02/00 Q1027 GRN
04:55
M
2 °C 7 km 6.800 ft 070° 070° 6 kt METAR EHLW 020355Z AUTO 07006KT 020V120 7000 BR SCT016 OVC068 02/00 Q1027 WHT
04:25
M
2 °C 6 km 6.600 ft 080° 080° 6 kt METAR EHLW 020325Z AUTO 08006KT 360V130 6000 BR OVC066 02/01 Q1027 WHT
03:55
M
2 °C 5 km 6.500 ft 060° 060° 6 kt METAR EHLW 020255Z AUTO 06006KT 360V110 5000 BR OVC065 02/01 Q1027 WHT
03:25
M
3 °C 6 km 6.300 ft 060° 060° 6 kt METAR EHLW 020225Z AUTO 06006KT 360V120 6000 BR BKN063 OVC069 03/01 Q1027 WHT
02:55
M
3 °C 6 km 6.400 ft 060° 060° 7 kt METAR EHLW 020155Z AUTO 06007KT 360V130 6000 BR OVC064 03/01 Q1027 WHT
02:39
M
3 °C 5 km 6.400 ft 060° 060° 7 kt METAR EHLW 020139Z AUTO 06007KT 360V100 5000 BR OVC064 03/01 Q1027 WHT
02:25
M
3 °C 5 km 6.600 ft 060° 060° 6 kt METAR EHLW 020125Z AUTO 06006KT 340V150 5000 BR OVC066 03/02 Q1027 WHT
02:17
M
3 °C 5 km 6.600 ft 060° 060° 6 kt SPECI EHLW 020117Z AUTO 06006KT 010V130 5000 BR FEW009 OVC066 03/02 Q1027 WHT
01:55
I
3 °C 4,5 km 1.100 ft 050° 050° 5 kt METAR EHLW 020055Z AUTO 05005KT 010V090 4500 BR SCT009 OVC011 03/02 Q1027 GRN
01:48
I
3 °C 4,3 km 1.300 ft 050° 050° 5 kt SPECI EHLW 020048Z AUTO 05005KT 350V100 4300 BR SCT010 BKN013 BKN060 03/02 Q1027 GRN
01:44
I
3 °C 4,4 km 6.000 ft 060° 060° 5 kt METAR EHLW 020044Z AUTO 06005KT 350V130 4400 BR FEW011 BKN060 OVC066 03/02 Q1027 GRN
01:25
I
3 °C 4,4 km 1.000 ft 050° 050° 4 kt METAR EHLW 020025Z AUTO 05004KT 360V090 4400 BR SCT009 BKN010 OVC012 03/02 Q1027 GRN
01:05
I
3 °C 4,6 km 1.400 ft 050° 050° 6 kt METAR EHLW 020005Z AUTO 05006KT 360V080 4600 BR SCT011 BKN014 OVC065 03/02 Q1028 GRN
01:01
I
3 °C 4,3 km 1.500 ft 050° 050° 5 kt METAR EHLW 020001Z AUTO 05005KT 360V080 4300 BR SCT013 BKN015 OVC065 03/02 Q1028 GRN
00:55
I
3 °C 3,9 km 6.600 ft 040° 040° 5 kt METAR EHLW 012355Z AUTO 04005KT 010V070 3900 BR OVC066 03/02 Q1027 GRN
00:25
I
4 °C 4,3 km 5.900 ft 060° 060° 5 kt METAR EHLW 012325Z AUTO 06005KT 010V120 4300 BR BKN059 OVC066 04/02 Q1028 GRN
00:10
I
4 °C 4 km 6.200 ft 060° 060° 5 kt METAR EHLW 012310Z AUTO 06005KT 360V110 4000 BR OVC062 04/02 Q1028 GRN

1 grudnia 2022

Czas Kod Pogoda Temp. Widoczność Sufit Wiatr METAR/SPECI
23:55
I
3 °C 3,4 km 6.100 ft 040° 040° 3 kt METAR EHLW 012255Z AUTO 04003KT 360V120 3400 BR OVC061 03/02 Q1028 YLO
23:38
I
3 °C 3,3 km 6.200 ft 040° 040° 3 kt METAR EHLW 012238Z AUTO 04003KT 360V110 3300 BR OVC062 03/02 Q1028 YLO
23:25
I
4 °C 3,7 km 6.200 ft 040° 040° 4 kt METAR EHLW 012225Z AUTO 04004KT 010V090 3700 BR OVC062 04/02 Q1028 GRN
22:55
I
4 °C 4,1 km 6.000 ft 060° 060° 5 kt METAR EHLW 012155Z AUTO 06005KT 360V120 4100 BR OVC060 04/02 Q1028 GRN
22:37
I
4 °C 4,5 km 5.800 ft 070° 070° 4 kt METAR EHLW 012137Z AUTO 07004KT 340V110 4500 BR SCT053 OVC058 04/02 Q1028 GRN
22:25
M
4 °C 5 km 6.000 ft 080° 080° 4 kt METAR EHLW 012125Z AUTO 08004KT 030V130 5000 BR OVC060 04/02 Q1028 WHT
21:55
M
4 °C 6 km 5.800 ft 090° 090° 6 kt METAR EHLW 012055Z AUTO 09006KT 360V140 6000 BR OVC058 04/02 Q1028 WHT
21:25
M
4 °C 6 km 5.000 ft Var Var 7 kt METAR EHLW 012025Z AUTO VRB07KT 6000 BR SCT045 OVC050 04/02 Q1028 WHT NOSIG
20:55
M
4 °C 5 km 3.800 ft 080° 080° 8 kt METAR EHLW 011955Z AUTO 08008KT 010V120 5000 BR BKN038 BKN044 OVC055 04/03 Q1028 WHT TEMPO 2500 BR
20:25
M
5 °C 5 km 5.600 ft 080° 080° 8 kt METAR EHLW 011925Z AUTO 08008KT 020V140 5000 BR OVC056 05/03 Q1028 WHT TEMPO 2500 BR
20:11
M
5 °C 5 km 5.600 ft 080° 080° 8 kt METAR EHLW 011911Z AUTO 08008KT 010V140 5000 BR OVC056 05/03 Q1028 WHT TEMPO 2500 BR
19:58
M
5 °C 5 km 5.600 ft 080° 080° 8 kt METAR EHLW 011858Z AUTO 08008KT 020V130 5000 R05/2700N BR OVC056 05/03 Q1028 WHT TEMPO 2500 BR
19:55
I
5 °C 2,6 km 5.500 ft 070° 070° 7 kt METAR EHLW 011855Z AUTO 07007KT 020V120 2600 R05/2400N BR OVC055 05/03 Q1028 YLO TEMPO 2500 BR
19:42
I
5 °C 2,8 km 5.400 ft 070° 070° 7 kt METAR EHLW 011842Z AUTO 07007KT 340V130 2800 R05/2600N BR OVC054 05/03 Q1028 YLO TEMPO 2500 BR
19:25
I
5 °C 2,7 km 5.300 ft 080° 080° 7 kt METAR EHLW 011825Z AUTO 08007KT 020V130 2700 R05/2500N BR OVC053 05/03 Q1028 YLO TEMPO 3000 BR
18:55
I
5 °C 2,8 km 5.100 ft 070° 070° 6 kt METAR EHLW 011755Z AUTO 07006KT 010V110 2800 R05/2600N BR OVC051 05/04 Q1028 YLO TEMPO 3000 BR
18:25
I
5 °C 2,8 km 5.000 ft 070° 070° 6 kt METAR EHLW 011725Z AUTO 07006KT 340V120 2800 R05/2700N BR OVC050 05/04 Q1028 YLO TEMPO 3000 BR
17:55
I
5 °C 3 km 4.800 ft 080° 080° 5 kt METAR EHLW 011655Z AUTO 08005KT 030V130 3000 R05/2800D BR OVC048/// 05/04 Q1028 YLO TEMPO 3000 BR
17:38
I
5 °C 3,3 km 5.000 ft 080° 080° 6 kt METAR EHLW 011638Z AUTO 08006KT 020V150 3300 R05/P3000N BR OVC050 05/04 Q1028 YLO TEMPO 3000 BR
17:25
I
5 °C 3,3 km 5.100 ft 070° 070° 6 kt METAR EHLW 011625Z AUTO 07006KT 360V120 3300 R05/P3000N BR OVC051 05/04 Q1028 YLO NOSIG
17:10
I
5 °C 3,4 km 2.400 ft 050° 050° 6 kt METAR EHLW 011610Z AUTO 05006KT 010V110 3400 R05/P3000N BR SCT017 BKN024 BKN027 05/04 Q1028 YLO NOSIG
17:03
I
5 °C 4,4 km 2.800 ft 050° 050° 6 kt METAR EHLW 011603Z AUTO 05006KT 350V100 4400 BR FEW017 SCT023 BKN028 05/04 Q1028 GRN NOSIG
16:58
M
6 °C 6 km 5.200 ft 040° 040° 6 kt METAR EHLW 011558Z AUTO 04006KT 350V090 6000 BR FEW027 OVC052 06/04 Q1028 WHT NOSIG
16:55
V
6 °C 10 km+ 5.200 ft 040° 040° 6 kt METAR EHLW 011555Z AUTO 04006KT 360V080 9999 FEW028 OVC052 06/04 Q1028 BLU NOSIG
16:25
M
6 °C 10 km+ 2.100 ft 040° 040° 5 kt METAR EHLW 011525Z AUTO 04005KT 010V070 9999 BKN021 BKN025 OVC052 06/04 Q1028 WHT NOSIG
16:17
V
6 °C 10 km+ 5.200 ft 040° 040° 5 kt METAR EHLW 011517Z AUTO 04005KT 010V070 9999 SCT021 SCT027 OVC052 06/04 Q1028 WHT NOSIG
15:55
V
6 °C 10 km+ 5.400 ft 050° 050° 4 kt METAR EHLW 011455Z AUTO 05004KT 010V080 9999 OVC054 06/04 Q1027 BLU NOSIG
15:25
V
6 °C 10 km+ 5.300 ft 020° 020° 4 kt METAR EHLW 011425Z AUTO 02004KT 360V060 9999 FEW034 OVC053 06/04 Q1028 BLU NOSIG
14:55
V
7 °C 10 km+ 5.300 ft 040° 040° 5 kt METAR EHLW 011355Z AUTO 04005KT 360V070 9999 OVC053 07/04 Q1028 BLU NOSIG
14:30
V
7 °C 10 km+ 5.400 ft 040° 040° 5 kt METAR EHLW 011330Z AUTO 04005KT 010V080 9999 OVC054 07/04 Q1028 BLU NOSIG
14:25
V
7 °C 10 km+ 5.500 ft 050° 050° 5 kt METAR EHLW 011325Z AUTO 05005KT 010V110 9999 OVC055 07/04 Q1028 BLU NOSIG
14:00
V
7 °C 10 km+ 5.500 ft 040° 040° 5 kt METAR EHLW 011300Z AUTO 04005KT 360V080 9999 OVC055 07/04 Q1028 BLU NOSIG
13:55
V
7 °C 10 km+ 5.600 ft 050° 050° 6 kt METAR EHLW 011255Z AUTO 05006KT 360V100 9999 OVC056 07/04 Q1028 BLU
13:25
V
8 °C 10 km+ 5.700 ft 030° 030° 8 kt METAR EHLW 011225Z AUTO 03008KT 350V120 9999 OVC057 08/04 Q1028 BLU
13:12
V
8 °C 10 km+ - 040° 040° 7 kt METAR EHLW 011212Z AUTO 04007KT 010V080 9999 FEW018 SCT057 08/03 Q1028 BLU
12:56
V
8 °C 9 km - 040° 040° 6 kt METAR EHLW 011156Z AUTO 04006KT 360V080 9000 HZ FEW020 08/04 Q1028 BLU
12:55
M
8 °C 7 km - 050° 050° 5 kt METAR EHLW 011155Z AUTO 05005KT 360V080 7000 HZ FEW019 08/04 Q1028 WHT
12:36
V
8 °C 8 km 5.300 ft 080° 080° 5 kt METAR EHLW 011136Z AUTO 08005KT 010V130 8000 HZ FEW032 OVC053 08/04 Q1028 BLU
12:33
M
8 °C 6 km 5.300 ft 080° 080° 4 kt METAR EHLW 011133Z AUTO 08004KT 010V150 6000 HZ FEW020 OVC053 08/04 Q1028 WHT
12:29
V
8 °C 10 km+ 5.300 ft 070° 070° 4 kt METAR EHLW 011129Z AUTO 07004KT 010V150 9999 FEW019 OVC053 08/04 Q1028 BLU
12:25
M
8 °C 5 km 5.300 ft 060° 060° 3 kt METAR EHLW 011125Z AUTO 06003KT 010V140 5000 HZ FEW019 OVC053 08/04 Q1028 WHT
12:07
V
8 °C 10 km+ - 050° 050° 3 kt METAR EHLW 011107Z AUTO 05003KT 360V110 9999 FEW054 08/03 Q1028 BLU
12:06
I
8 °C 4,5 km - 040° 040° 3 kt SPECI EHLW 011106Z AUTO 04003KT 350V110 4500 HZ NCD 08/03 Q1028 GRN
11:55
V
7 °C 10 km+ - 030° 030° 3 kt METAR EHLW 011055Z AUTO 03003KT 330V040 9999 NCD 07/03 Q1028 BLU
11:25
V
7 °C 10 km+ - 010° 010° 4 kt METAR EHLW 011025Z AUTO 01004KT 9999 NCD 07/04 Q1029 BLU
10:55
V
7 °C 10 km+ 5.300 ft 350° 350° 3 kt METAR EHLW 010955Z AUTO 35003KT 330V060 9999 OVC053 07/04 Q1029 BLU

My i strony trzecie śledzimy Twoje zachowanie internetowe na naszej stronie za pomocą plików cookie. Jeśli kontynuujesz, zakładamy, że zgadzasz się z naszymi polityka plików cookie.